Time;durP1;ratioP1;P1;durP2;ratioP2;P2;SDS_P1;SDS_P2;PMS_P1;PMS_P2;Temp;Humidity;BMP_temperature;BMP_pressure;BME280_temperature;BME280_humidity;BME280_pressure;Samples;Min_cycle;Max_cycle;Signal;HPM_P1;HPM_P2
2021/08/31 00:07:50;;;;;;;7.1;4.3;;;;;;;12.83;100;98025.26;;;;
2021/08/31 00:17:50;;;;;;;6.3;3.7;;;;;;;12.8;100;98018.61;;;;
2021/08/31 00:27:49;;;;;;;5.7;3.3;;;;;;;12.9;100;98028.99;;;;
2021/08/31 00:37:49;;;;;;;10.3;4;;;;;;;12.95;100;98036.08;;;;
2021/08/31 00:47:48;;;;;;;8.2;3.5;;;;;;;12.96;100;98046.58;;;;
2021/08/31 00:57:47;;;;;;;9.8;5.2;;;;;;;12.96;100;98051.98;;;;
2021/08/31 01:07:47;;;;;;;5.7;3.8;;;;;;;12.82;100;98042.59;;;;
2021/08/31 01:17:46;;;;;;;10;4.3;;;;;;;12.85;100;98048.13;;;;
2021/08/31 01:27:46;;;;;;;9.5;4.3;;;;;;;12.8;100;98045.66;;;;
2021/08/31 01:37:45;;;;;;;10.7;6.3;;;;;;;12.5;100;98038.78;;;;
2021/08/31 01:47:45;;;;;;;6.8;5;;;;;;;12.47;100;98032.14;;;;
2021/08/31 01:57:44;;;;;;;6;3.8;;;;;;;12.52;100;98023.05;;;;
2021/08/31 02:07:43;;;;;;;7.7;3.6;;;;;;;12.57;100;98012.8;;;;
2021/08/31 02:17:43;;;;;;;7.3;4.4;;;;;;;12.56;100;98008.5;;;;
2021/08/31 02:27:42;;;;;;;5.9;2.9;;;;;;;12.53;100;98000.28;;;;
2021/08/31 02:37:41;;;;;;;7;3.8;;;;;;;12.56;100;97994.99;;;;
2021/08/31 02:47:41;;;;;;;11.2;3.9;;;;;;;12.41;100;97978.64;;;;
2021/08/31 02:57:40;;;;;;;6.6;4.5;;;;;;;12.46;100;97973.03;;;;
2021/08/31 03:07:40;;;;;;;5.3;2.9;;;;;;;12.4;100;97968.94;;;;
2021/08/31 03:17:39;;;;;;;5.6;3.5;;;;;;;12.38;100;97965.8;;;;
2021/08/31 03:27:41;;;;;;;5.5;2.9;;;;;;;12.35;100;97966.47;;;;
2021/08/31 03:37:38;;;;;;;8.2;3.9;;;;;;;12.37;100;97954.19;;;;
2021/08/31 03:47:37;;;;;;;5.5;2.8;;;;;;;12.41;100;97962.42;;;;
2021/08/31 03:57:36;;;;;;;6;2.9;;;;;;;12.5;100;97961.2;;;;
2021/08/31 04:07:36;;;;;;;3.8;2.2;;;;;;;12.45;100;97956.02;;;;
2021/08/31 04:17:35;;;;;;;5.8;3;;;;;;;12.6;100;97974.28;;;;
2021/08/31 04:27:35;;;;;;;6.5;3.7;;;;;;;12.51;100;97962.78;;;;
2021/08/31 04:37:34;;;;;;;5.4;3.6;;;;;;;12.65;100;97967.88;;;;
2021/08/31 04:47:34;;;;;;;7.6;4.3;;;;;;;12.72;100;97970.81;;;;
2021/08/31 04:57:33;;;;;;;5.2;3.4;;;;;;;12.67;100;97957.5;;;;
2021/08/31 05:07:33;;;;;;;5.2;2.9;;;;;;;12.7;100;97962.27;;;;
2021/08/31 05:17:32;;;;;;;4.7;2.5;;;;;;;12.86;100;97952.36;;;;
2021/08/31 05:27:31;;;;;;;3.5;2;;;;;;;12.9;100;97949.77;;;;
2021/08/31 05:37:31;;;;;;;4.2;2.6;;;;;;;13.02;100;97960.57;;;;
2021/08/31 05:47:30;;;;;;;3.4;2.1;;;;;;;13.08;100;97949.19;;;;
2021/08/31 05:57:30;;;;;;;5.8;2.8;;;;;;;13.23;100;97957.77;;;;
2021/08/31 06:07:30;;;;;;;5;2.6;;;;;;;13.14;100;97954.41;;;;
2021/08/31 06:17:31;;;;;;;2.2;1.4;;;;;;;13.15;100;97947.88;;;;
2021/08/31 06:27:28;;;;;;;3.5;2;;;;;;;13.25;100;97958.24;;;;
2021/08/31 06:37:28;;;;;;;5;2.1;;;;;;;13.09;100;97963.53;;;;
2021/08/31 06:47:27;;;;;;;3.3;2;;;;;;;13.07;100;97949.54;;;;
2021/08/31 06:57:27;;;;;;;5.7;3.3;;;;;;;13.24;100;97970.19;;;;
2021/08/31 07:07:26;;;;;;;4.8;2.8;;;;;;;13.49;100;97969.03;;;;
2021/08/31 07:17:26;;;;;;;4.7;2.6;;;;;;;13.59;100;97976.69;;;;
2021/08/31 07:27:25;;;;;;;8.6;2.7;;;;;;;13.72;100;97982.85;;;;
2021/08/31 07:37:25;;;;;;;6.3;2.7;;;;;;;13.81;100;97988.94;;;;
2021/08/31 07:47:24;;;;;;;3.8;2.2;;;;;;;13.86;100;97992.19;;;;
2021/08/31 07:57:24;;;;;;;4.7;2.4;;;;;;;13.88;100;98003.45;;;;
2021/08/31 08:07:23;;;;;;;4.8;2.8;;;;;;;13.9;100;98016.67;;;;
2021/08/31 08:17:23;;;;;;;3.9;2.4;;;;;;;13.86;100;98021.19;;;;
2021/08/31 08:27:23;;;;;;;6.2;4;;;;;;;13.72;100;98026.98;;;;
2021/08/31 08:37:22;;;;;;;4.1;2.3;;;;;;;13.79;100;98010.14;;;;
2021/08/31 08:47:22;;;;;;;6.6;2.7;;;;;;;13.83;100;97984.75;;;;
2021/08/31 08:57:21;;;;;;;1.4;0.9;;;;;;;14.31;100;97977.56;;;;
2021/08/31 09:07:21;;;;;;;2.3;0.6;;;;;;;14.23;100;97981.23;;;;
2021/08/31 09:17:20;;;;;;;1.6;0.9;;;;;;;14.58;100;97984.9;;;;
2021/08/31 09:27:20;;;;;;;3;1.9;;;;;;;15.52;100;97984.89;;;;
2021/08/31 09:37:20;;;;;;;3.1;1.6;;;;;;;16.82;100;97970.42;;;;
2021/08/31 09:47:20;;;;;;;3.1;1.4;;;;;;;16.53;100;97971.03;;;;
2021/08/31 09:57:19;;;;;;;2.9;1.7;;;;;;;16.79;100;97987.48;;;;
2021/08/31 10:07:19;;;;;;;4.8;1.8;;;;;;;16.24;100;97998.85;;;;
2021/08/31 10:17:19;;;;;;;5.4;3.8;;;;;;;16.34;100;97993.63;;;;
2021/08/31 10:27:19;;;;;;;5;2.4;;;;;;;16.34;100;97998.27;;;;
2021/08/31 10:37:19;;;;;;;5.2;3;;;;;;;16.33;100;98002.92;;;;
2021/08/31 10:47:20;;;;;;;5.4;2.8;;;;;;;16.35;100;97980.78;;;;
2021/08/31 10:57:19;;;;;;;5.1;2.9;;;;;;;16.36;100;97974.2;;;;
2021/08/31 11:07:19;;;;;;;3.4;2.1;;;;;;;16.28;100;97994.27;;;;
2021/08/31 11:17:19;;;;;;;4;2.2;;;;;;;16.17;100;97993.27;;;;
2021/08/31 11:27:19;;;;;;;4;2.2;;;;;;;15.87;100;97998.46;;;;
2021/08/31 11:37:19;;;;;;;4.8;2;;;;;;;15.66;100;97993.36;;;;
2021/08/31 11:47:19;;;;;;;5.7;2.6;;;;;;;15.5;100;97998.84;;;;
2021/08/31 11:57:19;;;;;;;3.4;1.9;;;;;;;15.39;100;97964.39;;;;
2021/08/31 12:07:18;;;;;;;4.4;2.3;;;;;;;15.36;100;97952.32;;;;
2021/08/31 12:17:18;;;;;;;4.4;2.1;;;;;;;15.24;100;97990.42;;;;
2021/08/31 12:27:18;;;;;;;7.9;5.1;;;;;;;15.1;100;97998.23;;;;
2021/08/31 12:37:17;;;;;;;5.3;3.8;;;;;;;15;100;98004.19;;;;
2021/08/31 12:47:19;;;;;;;7.6;5.6;;;;;;;15.11;100;97988.95;;;;
2021/08/31 12:57:17;;;;;;;9;3.1;;;;;;;15.11;100;97981.6;;;;
2021/08/31 13:07:17;;;;;;;6.3;3.5;;;;;;;15.11;100;97978.09;;;;
2021/08/31 13:17:17;;;;;;;4.6;3.5;;;;;;;15.18;100;97970.13;;;;
2021/08/31 13:27:16;;;;;;;5.8;3.6;;;;;;;15.16;100;97952.63;;;;
2021/08/31 13:37:16;;;;;;;4.7;2.9;;;;;;;15.19;100;97960.85;;;;
2021/08/31 13:47:16;;;;;;;10.6;5.1;;;;;;;15.39;100;97961.69;;;;
2021/08/31 13:57:15;;;;;;;7.2;4.4;;;;;;;15.69;100;97972.87;;;;
2021/08/31 14:07:15;;;;;;;8.8;5.5;;;;;;;15.9;100;97976.8;;;;
2021/08/31 14:17:15;;;;;;;5.5;4.2;;;;;;;15.97;100;97971.51;;;;
2021/08/31 14:27:15;;;;;;;14.4;6;;;;;;;15.85;100;97989.89;;;;
2021/08/31 14:37:15;;;;;;;9.1;6.9;;;;;;;15.94;100;97995.89;;;;
2021/08/31 14:47:15;;;;;;;8.8;5.3;;;;;;;15.84;100;97997.25;;;;
2021/08/31 14:57:14;;;;;;;11.2;5.9;;;;;;;15.38;100;98007.05;;;;
2021/08/31 15:07:14;;;;;;;13.7;5.1;;;;;;;15.02;100;97993.78;;;;
2021/08/31 15:17:14;;;;;;;3.4;1.3;;;;;;;15.25;100;98002.08;;;;
2021/08/31 15:27:14;;;;;;;4.2;2.2;;;;;;;14.86;100;97998.41;;;;
2021/08/31 15:37:13;;;;;;;3.3;1.8;;;;;;;15.07;100;97991.58;;;;
2021/08/31 15:47:13;;;;;;;3.4;1.8;;;;;;;15;100;98009.61;;;;
2021/08/31 15:57:13;;;;;;;4.1;2.2;;;;;;;14.77;100;97995.88;;;;
2021/08/31 16:07:13;;;;;;;2.8;1.2;;;;;;;14.76;100;97998.92;;;;
2021/08/31 16:17:12;;;;;;;6.7;1.6;;;;;;;14.67;100;98001.02;;;;
2021/08/31 16:27:12;;;;;;;5.7;2.7;;;;;;;14.68;100;98008.03;;;;
2021/08/31 16:37:12;;;;;;;7.9;4.2;;;;;;;14.6;100;98001.63;;;;
2021/08/31 16:47:11;;;;;;;7.4;5.5;;;;;;;14.47;100;97987.33;;;;
2021/08/31 16:57:11;;;;;;;4.7;2.7;;;;;;;14.31;100;97982.98;;;;
2021/08/31 17:07:11;;;;;;;4.4;2.5;;;;;;;14.4;100;97987.17;;;;
2021/08/31 17:17:10;;;;;;;8.1;5.1;;;;;;;14.34;100;97995.88;;;;
2021/08/31 17:27:10;;;;;;;9;7.1;;;;;;;14.38;100;98007.6;;;;
2021/08/31 17:37:10;;;;;;;7.4;6;;;;;;;14.32;100;98020.6;;;;
2021/08/31 17:47:09;;;;;;;10.9;8;;;;;;;14.45;100;98030.28;;;;
2021/08/31 17:57:09;;;;;;;8.5;6.4;;;;;;;14.56;100;98044.13;;;;
2021/08/31 18:07:08;;;;;;;7.1;5.4;;;;;;;14.65;100;98055.6;;;;
2021/08/31 18:17:08;;;;;;;9.1;4.5;;;;;;;14.63;100;98066.02;;;;
2021/08/31 18:27:11;;;;;;;9;6;;;;;;;14.61;100;98074.49;;;;
2021/08/31 18:37:07;;;;;;;7.8;4.9;;;;;;;14.65;100;98074.59;;;;
2021/08/31 18:47:07;;;;;;;7.2;3.8;;;;;;;14.61;100;98090;;;;
2021/08/31 18:57:06;;;;;;;5;3.6;;;;;;;14.61;100;98098.14;;;;
2021/08/31 19:07:06;;;;;;;6.6;3.8;;;;;;;14.38;100;98092.44;;;;
2021/08/31 19:17:05;;;;;;;4.8;2.9;;;;;;;14.36;100;98099.34;;;;
2021/08/31 19:27:05;;;;;;;3.7;1.7;;;;;;;14.38;100;98116.05;;;;
2021/08/31 19:37:05;;;;;;;9.1;3.3;;;;;;;14.44;100;98095.69;;;;
2021/08/31 19:47:04;;;;;;;4.6;2.5;;;;;;;14.48;100;98110.94;;;;
2021/08/31 19:57:04;;;;;;;7.9;3.6;;;;;;;14.47;100;98127.56;;;;
2021/08/31 20:07:04;;;;;;;6.3;2.5;;;;;;;14.5;100;98143.94;;;;
2021/08/31 20:17:03;;;;;;;6;3;;;;;;;14.49;100;98152.4;;;;
2021/08/31 20:27:03;;;;;;;4.8;2.6;;;;;;;14.47;100;98158.16;;;;
2021/08/31 20:37:03;;;;;;;4;1.6;;;;;;;14.45;100;98168.56;;;;
2021/08/31 20:47:02;;;;;;;4.2;2.1;;;;;;;14.43;100;98183.6;;;;
2021/08/31 20:57:02;;;;;;;4.9;2.1;;;;;;;14.38;100;98210.94;;;;
2021/08/31 21:07:02;;;;;;;3.6;1.8;;;;;;;14.21;100;98225.5;;;;
2021/08/31 21:17:01;;;;;;;4;1.9;;;;;;;14.25;100;98241.88;;;;
2021/08/31 21:27:02;;;;;;;4.2;2.5;;;;;;;14.28;100;98254.74;;;;
2021/08/31 21:37:01;;;;;;;4.8;2.6;;;;;;;14.22;100;98266.95;;;;
2021/08/31 21:47:00;;;;;;;5.8;3.4;;;;;;;14.22;100;98284;;;;
2021/08/31 21:57:00;;;;;;;6.9;3.6;;;;;;;14.24;100;98283.66;;;;
2021/08/31 22:06:59;;;;;;;9.6;5.7;;;;;;;14.16;100;98288.05;;;;
2021/08/31 22:16:59;;;;;;;6.8;4.4;;;;;;;14.2;100;98293.59;;;;
2021/08/31 22:26:59;;;;;;;10.9;7.7;;;;;;;14.13;100;98309.64;;;;
2021/08/31 22:36:58;;;;;;;6;3.5;;;;;;;14.11;100;98308.05;;;;
2021/08/31 22:46:58;;;;;;;6.1;4;;;;;;;14.06;100;98316.38;;;;
2021/08/31 22:56:58;;;;;;;12.7;5.6;;;;;;;14.07;100;98320.69;;;;
2021/08/31 23:06:57;;;;;;;7.9;3.8;;;;;;;14.06;100;98331.84;;;;
2021/08/31 23:16:57;;;;;;;6.2;2.9;;;;;;;13.93;100;98336.46;;;;
2021/08/31 23:26:56;;;;;;;5.3;2.4;;;;;;;13.89;100;98338.25;;;;
2021/08/31 23:36:56;;;;;;;5.1;3;;;;;;;13.81;100;98339.16;;;;
2021/08/31 23:46:56;;;;;;;9.3;3.3;;;;;;;13.77;100;98343.65;;;;
2021/08/31 23:56:55;;;;;;;8.1;3.6;;;;;;;13.74;100;98336.2;;;;
